sensor_id;sensor_type;location;lat;lon;timestamp;P1;durP1;ratioP1;P2;durP2;ratioP2
68449;SDS011;55434;39.570;2.652;2022-11-25T00:00:49;14.57;;;5.40;;
68449;SDS011;55434;39.570;2.652;2022-11-25T00:03:15;27.07;;;6.37;;
68449;SDS011;55434;39.570;2.652;2022-11-25T00:05:41;23.00;;;5.77;;
68449;SDS011;55434;39.570;2.652;2022-11-25T00:08:06;16.77;;;5.07;;
68449;SDS011;55434;39.570;2.652;2022-11-25T00:10:32;16.03;;;4.63;;
68449;SDS011;55434;39.570;2.652;2022-11-25T00:12:58;17.23;;;5.40;;
68449;SDS011;55434;39.570;2.652;2022-11-25T00:15:24;14.27;;;5.10;;
68449;SDS011;55434;39.570;2.652;2022-11-25T00:17:50;19.48;;;4.85;;
68449;SDS011;55434;39.570;2.652;2022-11-25T00:20:17;15.27;;;4.73;;
68449;SDS011;55434;39.570;2.652;2022-11-25T00:22:45;15.70;;;4.78;;
68449;SDS011;55434;39.570;2.652;2022-11-25T00:25:11;18.15;;;5.30;;
68449;SDS011;55434;39.570;2.652;2022-11-25T00:27:37;17.33;;;5.10;;
68449;SDS011;55434;39.570;2.652;2022-11-25T00:30:03;16.70;;;4.70;;
68449;SDS011;55434;39.570;2.652;2022-11-25T00:32:29;15.43;;;3.92;;
68449;SDS011;55434;39.570;2.652;2022-11-25T00:34:55;16.23;;;4.67;;
68449;SDS011;55434;39.570;2.652;2022-11-25T00:37:20;17.40;;;3.95;;
68449;SDS011;55434;39.570;2.652;2022-11-25T00:39:46;15.13;;;4.20;;
68449;SDS011;55434;39.570;2.652;2022-11-25T00:42:12;14.20;;;4.18;;
68449;SDS011;55434;39.570;2.652;2022-11-25T00:44:56;12.32;;;4.00;;
68449;SDS011;55434;39.570;2.652;2022-11-25T00:47:22;14.53;;;4.27;;
68449;SDS011;55434;39.570;2.652;2022-11-25T00:49:48;15.63;;;4.43;;
68449;SDS011;55434;39.570;2.652;2022-11-25T00:52:17;16.20;;;4.20;;
68449;SDS011;55434;39.570;2.652;2022-11-25T00:54:45;20.55;;;4.75;;
68449;SDS011;55434;39.570;2.652;2022-11-25T00:57:14;18.58;;;4.55;;
68449;SDS011;55434;39.570;2.652;2022-11-25T00:59:44;16.17;;;4.60;;
68449;SDS011;55434;39.570;2.652;2022-11-25T01:02:12;20.50;;;5.00;;
68449;SDS011;55434;39.570;2.652;2022-11-25T01:04:39;17.13;;;4.43;;
68449;SDS011;55434;39.570;2.652;2022-11-25T01:07:05;18.05;;;4.97;;
68449;SDS011;55434;39.570;2.652;2022-11-25T01:09:31;18.45;;;4.57;;
68449;SDS011;55434;39.570;2.652;2022-11-25T01:11:57;22.53;;;5.20;;
68449;SDS011;55434;39.570;2.652;2022-11-25T01:14:23;16.60;;;4.65;;
68449;SDS011;55434;39.570;2.652;2022-11-25T01:16:49;18.13;;;4.32;;
68449;SDS011;55434;39.570;2.652;2022-11-25T01:19:15;17.77;;;4.30;;
68449;SDS011;55434;39.570;2.652;2022-11-25T01:21:41;13.03;;;4.40;;
68449;SDS011;55434;39.570;2.652;2022-11-25T01:24:07;17.10;;;4.72;;
68449;SDS011;55434;39.570;2.652;2022-11-25T01:26:35;15.68;;;4.40;;
68449;SDS011;55434;39.570;2.652;2022-11-25T01:29:02;15.23;;;4.60;;
68449;SDS011;55434;39.570;2.652;2022-11-25T01:31:30;14.55;;;4.50;;
68449;SDS011;55434;39.570;2.652;2022-11-25T01:34:09;14.82;;;4.60;;
68449;SDS011;55434;39.570;2.652;2022-11-25T01:36:38;17.45;;;4.47;;
68449;SDS011;55434;39.570;2.652;2022-11-25T01:39:03;15.63;;;4.23;;
68449;SDS011;55434;39.570;2.652;2022-11-25T01:41:31;15.60;;;4.70;;
68449;SDS011;55434;39.570;2.652;2022-11-25T01:44:04;15.82;;;4.40;;
68449;SDS011;55434;39.570;2.652;2022-11-25T01:46:44;17.58;;;4.30;;
68449;SDS011;55434;39.570;2.652;2022-11-25T01:49:15;16.67;;;4.38;;
68449;SDS011;55434;39.570;2.652;2022-11-25T01:51:47;14.97;;;4.23;;
68449;SDS011;55434;39.570;2.652;2022-11-25T01:54:27;15.75;;;4.78;;
68449;SDS011;55434;39.570;2.652;2022-11-25T01:57:01;20.33;;;5.28;;
68449;SDS011;55434;39.570;2.652;2022-11-25T01:59:31;15.52;;;4.35;;
68449;SDS011;55434;39.570;2.652;2022-11-25T02:02:01;15.07;;;4.47;;
68449;SDS011;55434;39.570;2.652;2022-11-25T02:04:27;16.50;;;4.80;;
68449;SDS011;55434;39.570;2.652;2022-11-25T02:06:58;14.50;;;4.22;;
68449;SDS011;55434;39.570;2.652;2022-11-25T02:09:40;15.57;;;3.92;;
68449;SDS011;55434;39.570;2.652;2022-11-25T02:12:06;12.67;;;4.00;;
68449;SDS011;55434;39.570;2.652;2022-11-25T02:14:33;18.67;;;4.55;;
68449;SDS011;55434;39.570;2.652;2022-11-25T02:16:59;14.32;;;3.50;;
68449;SDS011;55434;39.570;2.652;2022-11-25T02:19:33;14.73;;;3.20;;
68449;SDS011;55434;39.570;2.652;2022-11-25T02:22:03;16.38;;;3.85;;
68449;SDS011;55434;39.570;2.652;2022-11-25T02:24:40;16.00;;;2.83;;
68449;SDS011;55434;39.570;2.652;2022-11-25T02:27:10;12.88;;;3.55;;
68449;SDS011;55434;39.570;2.652;2022-11-25T02:29:36;14.07;;;3.53;;
68449;SDS011;55434;39.570;2.652;2022-11-25T02:32:03;12.20;;;3.17;;
68449;SDS011;55434;39.570;2.652;2022-11-25T02:34:29;12.02;;;3.33;;
68449;SDS011;55434;39.570;2.652;2022-11-25T02:36:55;13.45;;;2.90;;
68449;SDS011;55434;39.570;2.652;2022-11-25T02:39:21;11.47;;;3.13;;
68449;SDS011;55434;39.570;2.652;2022-11-25T02:41:49;14.30;;;2.85;;
68449;SDS011;55434;39.570;2.652;2022-11-25T02:44:18;14.07;;;2.95;;
68449;SDS011;55434;39.570;2.652;2022-11-25T02:46:44;13.80;;;3.33;;
68449;SDS011;55434;39.570;2.652;2022-11-25T02:49:10;13.50;;;2.93;;
68449;SDS011;55434;39.570;2.652;2022-11-25T02:51:36;14.13;;;2.78;;
68449;SDS011;55434;39.570;2.652;2022-11-25T02:54:03;16.83;;;2.63;;
68449;SDS011;55434;39.570;2.652;2022-11-25T02:56:32;11.43;;;2.80;;
68449;SDS011;55434;39.570;2.652;2022-11-25T02:58:59;14.70;;;2.67;;
68449;SDS011;55434;39.570;2.652;2022-11-25T03:01:25;12.43;;;3.00;;
68449;SDS011;55434;39.570;2.652;2022-11-25T03:03:51;13.02;;;3.08;;
68449;SDS011;55434;39.570;2.652;2022-11-25T03:06:17;14.33;;;2.77;;
68449;SDS011;55434;39.570;2.652;2022-11-25T03:08:43;14.20;;;2.70;;
68449;SDS011;55434;39.570;2.652;2022-11-25T03:11:08;12.10;;;3.10;;
68449;SDS011;55434;39.570;2.652;2022-11-25T03:13:34;17.10;;;3.33;;
68449;SDS011;55434;39.570;2.652;2022-11-25T03:16:00;16.25;;;3.00;;
68449;SDS011;55434;39.570;2.652;2022-11-25T03:18:26;13.77;;;2.77;;
68449;SDS011;55434;39.570;2.652;2022-11-25T03:20:52;10.90;;;2.30;;
68449;SDS011;55434;39.570;2.652;2022-11-25T03:23:19;11.05;;;2.35;;
68449;SDS011;55434;39.570;2.652;2022-11-25T03:25:45;16.13;;;2.85;;
68449;SDS011;55434;39.570;2.652;2022-11-25T03:28:11;14.43;;;2.90;;
68449;SDS011;55434;39.570;2.652;2022-11-25T03:30:37;17.43;;;2.80;;
68449;SDS011;55434;39.570;2.652;2022-11-25T03:33:05;13.20;;;3.00;;
68449;SDS011;55434;39.570;2.652;2022-11-25T03:35:30;16.77;;;2.70;;
68449;SDS011;55434;39.570;2.652;2022-11-25T03:37:56;13.27;;;2.75;;
68449;SDS011;55434;39.570;2.652;2022-11-25T03:40:22;12.03;;;2.77;;
68449;SDS011;55434;39.570;2.652;2022-11-25T03:42:47;15.80;;;2.67;;
68449;SDS011;55434;39.570;2.652;2022-11-25T03:45:14;15.93;;;2.80;;
68449;SDS011;55434;39.570;2.652;2022-11-25T03:47:42;14.00;;;2.67;;
68449;SDS011;55434;39.570;2.652;2022-11-25T03:50:09;11.32;;;2.30;;
68449;SDS011;55434;39.570;2.652;2022-11-25T03:52:36;10.82;;;2.90;;
68449;SDS011;55434;39.570;2.652;2022-11-25T03:55:05;13.50;;;2.40;;
68449;SDS011;55434;39.570;2.652;2022-11-25T03:57:31;10.73;;;3.00;;
68449;SDS011;55434;39.570;2.652;2022-11-25T04:00:02;13.60;;;2.70;;
68449;SDS011;55434;39.570;2.652;2022-11-25T04:02:29;15.38;;;3.08;;
68449;SDS011;55434;39.570;2.652;2022-11-25T04:04:57;15.05;;;2.83;;
68449;SDS011;55434;39.570;2.652;2022-11-25T04:07:23;12.48;;;2.65;;
68449;SDS011;55434;39.570;2.652;2022-11-25T04:09:49;15.27;;;2.67;;
68449;SDS011;55434;39.570;2.652;2022-11-25T04:12:14;9.93;;;2.33;;
68449;SDS011;55434;39.570;2.652;2022-11-25T04:14:58;13.13;;;2.85;;
68449;SDS011;55434;39.570;2.652;2022-11-25T04:17:24;12.07;;;3.13;;
68449;SDS011;55434;39.570;2.652;2022-11-25T04:19:50;12.83;;;2.50;;
68449;SDS011;55434;39.570;2.652;2022-11-25T04:22:15;13.60;;;2.58;;
68449;SDS011;55434;39.570;2.652;2022-11-25T04:24:41;15.47;;;2.90;;
68449;SDS011;55434;39.570;2.652;2022-11-25T04:27:07;11.55;;;2.80;;
68449;SDS011;55434;39.570;2.652;2022-11-25T04:29:40;14.53;;;2.83;;
68449;SDS011;55434;39.570;2.652;2022-11-25T04:32:06;12.93;;;2.63;;
68449;SDS011;55434;39.570;2.652;2022-11-25T04:34:31;12.63;;;2.60;;
68449;SDS011;55434;39.570;2.652;2022-11-25T04:36:57;17.10;;;3.15;;
68449;SDS011;55434;39.570;2.652;2022-11-25T04:39:23;14.40;;;3.13;;
68449;SDS011;55434;39.570;2.652;2022-11-25T04:41:48;13.10;;;2.63;;
68449;SDS011;55434;39.570;2.652;2022-11-25T04:44:14;10.90;;;2.97;;
68449;SDS011;55434;39.570;2.652;2022-11-25T04:46:40;12.20;;;2.72;;
68449;SDS011;55434;39.570;2.652;2022-11-25T04:49:08;14.77;;;3.67;;
68449;SDS011;55434;39.570;2.652;2022-11-25T04:51:35;15.97;;;2.93;;
68449;SDS011;55434;39.570;2.652;2022-11-25T04:54:00;12.68;;;3.53;;
68449;SDS011;55434;39.570;2.652;2022-11-25T04:56:26;16.63;;;3.33;;
68449;SDS011;55434;39.570;2.652;2022-11-25T04:58:52;16.67;;;4.05;;
68449;SDS011;55434;39.570;2.652;2022-11-25T05:01:38;22.10;;;4.68;;
68449;SDS011;55434;39.570;2.652;2022-11-25T05:04:04;15.67;;;4.57;;
68449;SDS011;55434;39.570;2.652;2022-11-25T05:06:30;17.33;;;4.45;;
68449;SDS011;55434;39.570;2.652;2022-11-25T05:08:56;16.93;;;4.70;;
68449;SDS011;55434;39.570;2.652;2022-11-25T05:11:21;18.30;;;4.75;;
68449;SDS011;55434;39.570;2.652;2022-11-25T05:13:47;13.85;;;4.35;;
68449;SDS011;55434;39.570;2.652;2022-11-25T05:16:13;14.67;;;4.43;;
68449;SDS011;55434;39.570;2.652;2022-11-25T05:18:40;21.58;;;5.00;;
68449;SDS011;55434;39.570;2.652;2022-11-25T05:21:06;17.08;;;5.35;;
68449;SDS011;55434;39.570;2.652;2022-11-25T05:23:32;20.67;;;5.80;;
68449;SDS011;55434;39.570;2.652;2022-11-25T05:26:01;20.02;;;6.07;;
68449;SDS011;55434;39.570;2.652;2022-11-25T05:28:28;19.73;;;6.17;;
68449;SDS011;55434;39.570;2.652;2022-11-25T05:30:55;21.27;;;6.57;;
68449;SDS011;55434;39.570;2.652;2022-11-25T05:33:20;22.23;;;6.95;;
68449;SDS011;55434;39.570;2.652;2022-11-25T05:35:54;23.17;;;7.18;;
68449;SDS011;55434;39.570;2.652;2022-11-25T05:38:25;22.90;;;6.55;;
68449;SDS011;55434;39.570;2.652;2022-11-25T05:40:51;20.43;;;6.10;;
68449;SDS011;55434;39.570;2.652;2022-11-25T05:43:17;18.60;;;5.50;;
68449;SDS011;55434;39.570;2.652;2022-11-25T05:45:43;20.80;;;5.65;;
68449;SDS011;55434;39.570;2.652;2022-11-25T05:48:09;21.53;;;5.80;;
68449;SDS011;55434;39.570;2.652;2022-11-25T05:50:35;21.35;;;5.00;;
68449;SDS011;55434;39.570;2.652;2022-11-25T05:53:02;27.48;;;5.30;;
68449;SDS011;55434;39.570;2.652;2022-11-25T05:55:28;17.60;;;4.93;;
68449;SDS011;55434;39.570;2.652;2022-11-25T05:57:53;20.00;;;4.30;;
68449;SDS011;55434;39.570;2.652;2022-11-25T06:00:19;29.17;;;4.97;;
68449;SDS011;55434;39.570;2.652;2022-11-25T06:02:48;22.48;;;4.97;;
68449;SDS011;55434;39.570;2.652;2022-11-25T06:05:14;23.55;;;5.13;;
68449;SDS011;55434;39.570;2.652;2022-11-25T06:07:42;26.80;;;5.03;;
68449;SDS011;55434;39.570;2.652;2022-11-25T06:10:07;24.80;;;5.67;;
68449;SDS011;55434;39.570;2.652;2022-11-25T06:12:33;23.00;;;4.80;;
68449;SDS011;55434;39.570;2.652;2022-11-25T06:14:59;21.73;;;4.50;;
68449;SDS011;55434;39.570;2.652;2022-11-25T06:17:25;24.43;;;4.63;;
68449;SDS011;55434;39.570;2.652;2022-11-25T06:19:50;24.50;;;4.80;;
68449;SDS011;55434;39.570;2.652;2022-11-25T06:22:16;33.80;;;6.07;;
68449;SDS011;55434;39.570;2.652;2022-11-25T06:24:41;23.43;;;5.20;;
68449;SDS011;55434;39.570;2.652;2022-11-25T06:27:07;27.08;;;6.43;;
68449;SDS011;55434;39.570;2.652;2022-11-25T06:29:33;21.57;;;5.07;;
68449;SDS011;55434;39.570;2.652;2022-11-25T06:32:00;18.55;;;6.07;;
68449;SDS011;55434;39.570;2.652;2022-11-25T06:34:26;22.73;;;6.60;;
68449;SDS011;55434;39.570;2.652;2022-11-25T06:36:51;23.03;;;5.80;;
68449;SDS011;55434;39.570;2.652;2022-11-25T06:39:18;29.17;;;5.88;;
68449;SDS011;55434;39.570;2.652;2022-11-25T06:41:43;38.53;;;8.37;;
68449;SDS011;55434;39.570;2.652;2022-11-25T06:44:11;22.30;;;5.82;;
68449;SDS011;55434;39.570;2.652;2022-11-25T06:46:37;22.52;;;4.70;;
68449;SDS011;55434;39.570;2.652;2022-11-25T06:49:03;28.17;;;5.67;;
68449;SDS011;55434;39.570;2.652;2022-11-25T06:51:28;26.30;;;5.53;;
68449;SDS011;55434;39.570;2.652;2022-11-25T06:53:54;17.40;;;5.03;;
68449;SDS011;55434;39.570;2.652;2022-11-25T06:56:21;21.27;;;5.20;;
68449;SDS011;55434;39.570;2.652;2022-11-25T06:58:49;19.30;;;5.38;;
68449;SDS011;55434;39.570;2.652;2022-11-25T07:03:45;19.43;;;5.20;;
68449;SDS011;55434;39.570;2.652;2022-11-25T07:06:13;22.52;;;5.90;;
68449;SDS011;55434;39.570;2.652;2022-11-25T07:08:41;21.17;;;6.35;;
68449;SDS011;55434;39.570;2.652;2022-11-25T07:11:07;27.17;;;5.93;;
68449;SDS011;55434;39.570;2.652;2022-11-25T07:13:37;20.65;;;5.05;;
68449;SDS011;55434;39.570;2.652;2022-11-25T07:16:05;18.63;;;5.13;;
68449;SDS011;55434;39.570;2.652;2022-11-25T07:18:33;20.02;;;5.25;;
68449;SDS011;55434;39.570;2.652;2022-11-25T07:21:04;20.35;;;5.82;;
68449;SDS011;55434;39.570;2.652;2022-11-25T07:23:31;28.52;;;5.95;;
68449;SDS011;55434;39.570;2.652;2022-11-25T07:26:05;47.10;;;7.43;;
68449;SDS011;55434;39.570;2.652;2022-11-25T07:28:33;16.87;;;5.10;;
68449;SDS011;55434;39.570;2.652;2022-11-25T07:31:03;18.75;;;5.10;;
68449;SDS011;55434;39.570;2.652;2022-11-25T07:33:33;24.02;;;4.80;;
68449;SDS011;55434;39.570;2.652;2022-11-25T07:36:02;20.48;;;5.20;;
68449;SDS011;55434;39.570;2.652;2022-11-25T07:38:29;21.00;;;5.15;;
68449;SDS011;55434;39.570;2.652;2022-11-25T07:40:55;24.83;;;5.93;;
68449;SDS011;55434;39.570;2.652;2022-11-25T07:43:22;19.38;;;5.32;;
68449;SDS011;55434;39.570;2.652;2022-11-25T07:45:48;28.08;;;6.00;;
68449;SDS011;55434;39.570;2.652;2022-11-25T07:48:13;25.20;;;5.33;;
68449;SDS011;55434;39.570;2.652;2022-11-25T07:50:39;20.17;;;5.37;;
68449;SDS011;55434;39.570;2.652;2022-11-25T07:53:05;16.90;;;5.10;;
68449;SDS011;55434;39.570;2.652;2022-11-25T07:55:30;29.20;;;6.38;;
68449;SDS011;55434;39.570;2.652;2022-11-25T07:57:56;64.87;;;9.77;;
68449;SDS011;55434;39.570;2.652;2022-11-25T08:00:22;35.47;;;7.68;;
68449;SDS011;55434;39.570;2.652;2022-11-25T08:02:47;23.43;;;5.80;;
68449;SDS011;55434;39.570;2.652;2022-11-25T08:05:13;18.43;;;5.80;;
68449;SDS011;55434;39.570;2.652;2022-11-25T08:07:39;23.52;;;6.38;;
68449;SDS011;55434;39.570;2.652;2022-11-25T08:10:04;24.03;;;5.83;;
68449;SDS011;55434;39.570;2.652;2022-11-25T08:12:31;22.85;;;5.47;;
68449;SDS011;55434;39.570;2.652;2022-11-25T08:14:57;23.73;;;5.93;;
68449;SDS011;55434;39.570;2.652;2022-11-25T08:17:22;24.47;;;5.80;;
68449;SDS011;55434;39.570;2.652;2022-11-25T08:19:48;20.30;;;5.43;;
68449;SDS011;55434;39.570;2.652;2022-11-25T08:22:14;23.47;;;6.30;;
68449;SDS011;55434;39.570;2.652;2022-11-25T08:24:39;24.38;;;6.30;;
68449;SDS011;55434;39.570;2.652;2022-11-25T08:27:05;18.40;;;5.57;;
68449;SDS011;55434;39.570;2.652;2022-11-25T08:29:31;32.28;;;6.07;;
68449;SDS011;55434;39.570;2.652;2022-11-25T08:31:56;22.47;;;6.60;;
68449;SDS011;55434;39.570;2.652;2022-11-25T08:34:23;23.85;;;7.20;;
68449;SDS011;55434;39.570;2.652;2022-11-25T08:36:49;22.23;;;6.78;;
68449;SDS011;55434;39.570;2.652;2022-11-25T08:39:15;22.77;;;6.95;;
68449;SDS011;55434;39.570;2.652;2022-11-25T08:41:41;26.23;;;7.50;;
68449;SDS011;55434;39.570;2.652;2022-11-25T08:44:07;29.33;;;7.43;;
68449;SDS011;55434;39.570;2.652;2022-11-25T08:46:34;20.87;;;6.63;;
68449;SDS011;55434;39.570;2.652;2022-11-25T08:49:03;24.70;;;7.07;;
68449;SDS011;55434;39.570;2.652;2022-11-25T08:51:39;25.60;;;7.15;;
68449;SDS011;55434;39.570;2.652;2022-11-25T08:54:05;34.40;;;8.80;;
68449;SDS011;55434;39.570;2.652;2022-11-25T08:56:32;26.83;;;8.60;;
68449;SDS011;55434;39.570;2.652;2022-11-25T08:58:58;30.75;;;7.32;;
68449;SDS011;55434;39.570;2.652;2022-11-25T09:01:24;26.90;;;7.30;;
68449;SDS011;55434;39.570;2.652;2022-11-25T09:03:50;27.70;;;6.50;;
68449;SDS011;55434;39.570;2.652;2022-11-25T09:06:19;22.70;;;6.32;;
68449;SDS011;55434;39.570;2.652;2022-11-25T09:08:46;19.58;;;6.05;;
68449;SDS011;55434;39.570;2.652;2022-11-25T09:11:11;23.65;;;6.93;;
68449;SDS011;55434;39.570;2.652;2022-11-25T09:13:37;28.08;;;7.28;;
68449;SDS011;55434;39.570;2.652;2022-11-25T09:16:03;20.13;;;6.28;;
68449;SDS011;55434;39.570;2.652;2022-11-25T09:18:30;18.53;;;4.90;;
68449;SDS011;55434;39.570;2.652;2022-11-25T09:20:57;14.75;;;4.03;;
68449;SDS011;55434;39.570;2.652;2022-11-25T09:23:23;15.60;;;3.78;;
68449;SDS011;55434;39.570;2.652;2022-11-25T09:25:56;16.17;;;3.83;;
68449;SDS011;55434;39.570;2.652;2022-11-25T09:28:23;15.30;;;3.88;;
68449;SDS011;55434;39.570;2.652;2022-11-25T09:30:49;23.00;;;4.40;;
68449;SDS011;55434;39.570;2.652;2022-11-25T09:33:16;17.92;;;3.63;;
68449;SDS011;55434;39.570;2.652;2022-11-25T09:35:42;17.05;;;4.32;;
68449;SDS011;55434;39.570;2.652;2022-11-25T09:38:08;18.77;;;3.63;;
68449;SDS011;55434;39.570;2.652;2022-11-25T09:40:37;14.15;;;3.13;;
68449;SDS011;55434;39.570;2.652;2022-11-25T09:43:15;19.25;;;3.83;;
68449;SDS011;55434;39.570;2.652;2022-11-25T09:52:09;15.82;;;4.25;;
68449;SDS011;55434;39.570;2.652;2022-11-25T09:54:39;20.25;;;4.13;;
68449;SDS011;55434;39.570;2.652;2022-11-25T09:59:46;20.23;;;4.68;;
68449;SDS011;55434;39.570;2.652;2022-11-25T10:02:23;15.18;;;3.60;;
68449;SDS011;55434;39.570;2.652;2022-11-25T10:05:15;19.70;;;6.13;;
68449;SDS011;55434;39.570;2.652;2022-11-25T10:07:47;12.80;;;4.00;;
68449;SDS011;55434;39.570;2.652;2022-11-25T10:10:23;18.00;;;4.03;;
68449;SDS011;55434;39.570;2.652;2022-11-25T10:13:00;18.60;;;4.07;;
68449;SDS011;55434;39.570;2.652;2022-11-25T10:15:41;15.35;;;3.42;;
68449;SDS011;55434;39.570;2.652;2022-11-25T10:18:12;11.40;;;2.90;;
68449;SDS011;55434;39.570;2.652;2022-11-25T10:20:45;13.27;;;3.25;;
68449;SDS011;55434;39.570;2.652;2022-11-25T10:23:16;13.35;;;2.80;;
68449;SDS011;55434;39.570;2.652;2022-11-25T10:25:47;17.17;;;3.42;;
68449;SDS011;55434;39.570;2.652;2022-11-25T10:28:18;11.88;;;3.47;;
68449;SDS011;55434;39.570;2.652;2022-11-25T10:33:36;11.88;;;3.47;;
68449;SDS011;55434;39.570;2.652;2022-11-25T10:36:42;7.25;;;1.80;;
68449;SDS011;55434;39.570;2.652;2022-11-25T10:39:12;6.80;;;2.25;;
68449;SDS011;55434;39.570;2.652;2022-11-25T10:44:42;12.38;;;3.53;;
68449;SDS011;55434;39.570;2.652;2022-11-25T10:52:59;6.60;;;1.63;;
68449;SDS011;55434;39.570;2.652;2022-11-25T10:55:28;6.82;;;1.17;;
68449;SDS011;55434;39.570;2.652;2022-11-25T10:57:56;10.30;;;1.90;;
68449;SDS011;55434;39.570;2.652;2022-11-25T11:06:00;11.48;;;1.95;;
68449;SDS011;55434;39.570;2.652;2022-11-25T11:08:38;8.20;;;1.90;;
68449;SDS011;55434;39.570;2.652;2022-11-25T11:11:09;8.27;;;1.20;;
68449;SDS011;55434;39.570;2.652;2022-11-25T11:14:09;6.72;;;1.45;;
68449;SDS011;55434;39.570;2.652;2022-11-25T11:16:41;12.10;;;1.60;;
68449;SDS011;55434;39.570;2.652;2022-11-25T11:19:19;8.35;;;1.70;;
68449;SDS011;55434;39.570;2.652;2022-11-25T11:21:48;10.02;;;1.88;;
68449;SDS011;55434;39.570;2.652;2022-11-25T11:24:31;8.07;;;1.35;;
68449;SDS011;55434;39.570;2.652;2022-11-25T11:27:03;14.00;;;2.35;;
68449;SDS011;55434;39.570;2.652;2022-11-25T11:29:32;10.13;;;1.70;;
68449;SDS011;55434;39.570;2.652;2022-11-25T11:32:02;8.05;;;1.40;;
68449;SDS011;55434;39.570;2.652;2022-11-25T11:37:21;10.07;;;1.98;;
68449;SDS011;55434;39.570;2.652;2022-11-25T11:40:11;8.93;;;1.63;;
68449;SDS011;55434;39.570;2.652;2022-11-25T11:43:04;7.90;;;1.42;;
68449;SDS011;55434;39.570;2.652;2022-11-25T11:48:23;10.55;;;1.70;;
68449;SDS011;55434;39.570;2.652;2022-11-25T11:57:43;7.53;;;1.48;;
68449;SDS011;55434;39.570;2.652;2022-11-25T12:00:10;7.00;;;1.23;;
68449;SDS011;55434;39.570;2.652;2022-11-25T12:03:39;8.60;;;1.55;;
68449;SDS011;55434;39.570;2.652;2022-11-25T12:05:39;7.50;;;2.35;;
68449;SDS011;55434;39.570;2.652;2022-11-25T12:08:10;10.82;;;2.40;;
68449;SDS011;55434;39.570;2.652;2022-11-25T12:10:50;11.13;;;1.88;;
68449;SDS011;55434;39.570;2.652;2022-11-25T12:13:48;7.68;;;1.70;;
68449;SDS011;55434;39.570;2.652;2022-11-25T12:16:29;9.63;;;1.75;;
68449;SDS011;55434;39.570;2.652;2022-11-25T12:19:20;6.88;;;2.22;;
68449;SDS011;55434;39.570;2.652;2022-11-25T12:24:39;9.48;;;1.17;;
68449;SDS011;55434;39.570;2.652;2022-11-25T12:27:16;10.68;;;1.48;;
68449;SDS011;55434;39.570;2.652;2022-11-25T12:29:57;13.60;;;2.08;;
68449;SDS011;55434;39.570;2.652;2022-11-25T12:37:55;6.78;;;1.25;;
68449;SDS011;55434;39.570;2.652;2022-11-25T12:40:40;9.05;;;1.85;;
68449;SDS011;55434;39.570;2.652;2022-11-25T12:45:40;6.65;;;1.73;;
68449;SDS011;55434;39.570;2.652;2022-11-25T12:48:09;6.03;;;1.35;;
68449;SDS011;55434;39.570;2.652;2022-11-25T12:53:38;3.63;;;0.90;;
68449;SDS011;55434;39.570;2.652;2022-11-25T13:17:40;9.38;;;1.85;;
68449;SDS011;55434;39.570;2.652;2022-11-25T13:23:29;7.40;;;1.70;;
68449;SDS011;55434;39.570;2.652;2022-11-25T13:25:49;6.45;;;1.10;;
68449;SDS011;55434;39.570;2.652;2022-11-25T13:36:23;4.90;;;0.50;;
68449;SDS011;55434;39.570;2.652;2022-11-25T13:41:24;3.70;;;0.80;;
68449;SDS011;55434;39.570;2.652;2022-11-25T13:46:47;5.35;;;0.90;;
68449;SDS011;55434;39.570;2.652;2022-11-25T13:49:30;3.47;;;0.80;;
68449;SDS011;55434;39.570;2.652;2022-11-25T13:54:59;4.47;;;1.00;;
68449;SDS011;55434;39.570;2.652;2022-11-25T13:57:31;6.65;;;1.80;;
68449;SDS011;55434;39.570;2.652;2022-11-25T14:00:41;8.63;;;1.60;;
68449;SDS011;55434;39.570;2.652;2022-11-25T14:02:45;5.90;;;1.05;;
68449;SDS011;55434;39.570;2.652;2022-11-25T14:10:55;5.30;;;1.23;;
68449;SDS011;55434;39.570;2.652;2022-11-25T14:24:44;4.50;;;1.00;;
68449;SDS011;55434;39.570;2.652;2022-11-25T14:27:15;6.97;;;1.80;;
68449;SDS011;55434;39.570;2.652;2022-11-25T14:29:58;4.63;;;0.98;;
68449;SDS011;55434;39.570;2.652;2022-11-25T14:32:39;6.30;;;2.00;;
68449;SDS011;55434;39.570;2.652;2022-11-25T14:35:17;6.78;;;1.20;;
68449;SDS011;55434;39.570;2.652;2022-11-25T14:37:47;6.13;;;1.60;;
68449;SDS011;55434;39.570;2.652;2022-11-25T14:42:49;4.65;;;1.00;;
68449;SDS011;55434;39.570;2.652;2022-11-25T14:45:22;4.17;;;1.10;;
68449;SDS011;55434;39.570;2.652;2022-11-25T14:47:49;5.63;;;1.17;;
68449;SDS011;55434;39.570;2.652;2022-11-25T14:50:15;3.78;;;0.73;;
68449;SDS011;55434;39.570;2.652;2022-11-25T14:52:41;4.80;;;0.70;;
68449;SDS011;55434;39.570;2.652;2022-11-25T14:55:11;4.35;;;0.80;;
68449;SDS011;55434;39.570;2.652;2022-11-25T14:57:40;4.03;;;0.63;;
68449;SDS011;55434;39.570;2.652;2022-11-25T15:00:13;6.38;;;0.85;;
68449;SDS011;55434;39.570;2.652;2022-11-25T15:02:51;4.00;;;0.50;;
68449;SDS011;55434;39.570;2.652;2022-11-25T15:05:29;3.37;;;0.63;;
68449;SDS011;55434;39.570;2.652;2022-11-25T15:12:55;3.08;;;0.45;;
68449;SDS011;55434;39.570;2.652;2022-11-25T15:15:22;5.22;;;0.52;;
68449;SDS011;55434;39.570;2.652;2022-11-25T15:17:51;8.40;;;1.10;;
68449;SDS011;55434;39.570;2.652;2022-11-25T15:20:19;7.72;;;0.88;;
68449;SDS011;55434;39.570;2.652;2022-11-25T15:22:50;5.95;;;0.70;;
68449;SDS011;55434;39.570;2.652;2022-11-25T15:25:18;2.70;;;0.50;;
68449;SDS011;55434;39.570;2.652;2022-11-25T15:27:44;6.80;;;0.73;;
68449;SDS011;55434;39.570;2.652;2022-11-25T15:30:18;3.80;;;0.57;;
68449;SDS011;55434;39.570;2.652;2022-11-25T15:32:44;4.75;;;0.85;;
68449;SDS011;55434;39.570;2.652;2022-11-25T15:35:15;5.70;;;0.85;;
68449;SDS011;55434;39.570;2.652;2022-11-25T15:37:43;2.40;;;0.40;;
68449;SDS011;55434;39.570;2.652;2022-11-25T15:40:29;5.13;;;0.43;;
68449;SDS011;55434;39.570;2.652;2022-11-25T15:43:01;9.20;;;1.02;;
68449;SDS011;55434;39.570;2.652;2022-11-25T15:45:51;5.75;;;0.80;;
68449;SDS011;55434;39.570;2.652;2022-11-25T15:48:28;6.00;;;0.95;;
68449;SDS011;55434;39.570;2.652;2022-11-25T15:51:04;3.63;;;0.50;;
68449;SDS011;55434;39.570;2.652;2022-11-25T15:53:52;3.28;;;0.40;;
68449;SDS011;55434;39.570;2.652;2022-11-25T15:56:22;3.78;;;0.60;;
68449;SDS011;55434;39.570;2.652;2022-11-25T15:58:51;4.97;;;0.70;;
68449;SDS011;55434;39.570;2.652;2022-11-25T16:01:18;4.53;;;0.73;;
68449;SDS011;55434;39.570;2.652;2022-11-25T16:03:46;5.47;;;0.70;;
68449;SDS011;55434;39.570;2.652;2022-11-25T16:06:31;2.63;;;0.55;;
68449;SDS011;55434;39.570;2.652;2022-11-25T16:08:58;7.40;;;1.15;;
68449;SDS011;55434;39.570;2.652;2022-11-25T16:11:26;6.47;;;0.90;;
68449;SDS011;55434;39.570;2.652;2022-11-25T16:17:02;8.43;;;1.23;;
68449;SDS011;55434;39.570;2.652;2022-11-25T16:19:33;6.13;;;0.88;;
68449;SDS011;55434;39.570;2.652;2022-11-25T16:22:04;6.43;;;1.20;;
68449;SDS011;55434;39.570;2.652;2022-11-25T16:24:35;7.93;;;1.92;;
68449;SDS011;55434;39.570;2.652;2022-11-25T16:27:23;9.15;;;1.40;;
68449;SDS011;55434;39.570;2.652;2022-11-25T16:29:55;7.90;;;1.07;;
68449;SDS011;55434;39.570;2.652;2022-11-25T16:32:32;7.13;;;0.98;;
68449;SDS011;55434;39.570;2.652;2022-11-25T16:37:39;6.07;;;0.90;;
68449;SDS011;55434;39.570;2.652;2022-11-25T16:40:05;7.70;;;1.20;;
68449;SDS011;55434;39.570;2.652;2022-11-25T16:42:31;9.07;;;1.20;;
68449;SDS011;55434;39.570;2.652;2022-11-25T16:44:57;10.35;;;1.35;;
68449;SDS011;55434;39.570;2.652;2022-11-25T16:47:24;9.20;;;1.05;;
68449;SDS011;55434;39.570;2.652;2022-11-25T16:49:51;7.72;;;1.08;;
68449;SDS011;55434;39.570;2.652;2022-11-25T16:52:17;7.57;;;1.00;;
68449;SDS011;55434;39.570;2.652;2022-11-25T16:54:43;7.50;;;1.05;;
68449;SDS011;55434;39.570;2.652;2022-11-25T16:57:17;8.15;;;1.00;;